Date,TemperatureHighF,TemperatureAvgF,TemperatureLowF,DewpointHighF,DewpointAvgF,DewpointLowF,HumidityHigh,HumidityAvg,HumidityLow,PressureMaxIn,PressureMinIn,WindSpeedMaxMPH,WindSpeedAvgMPH,GustSpeedMaxMPH,PrecipitationSumIn
2013-1-1,37.9,28.8,22.8,32.6,25.7,20.5,91,88,80,30.45,30.29,4,0,5,0.00
2013-1-2,48.3,31.1,23.8,36.3,24.9,20.6,91,79,46,30.29,30.14,4,0,6,0.00
2013-1-3,46.2,31.2,22.2,30.7,24.3,19.8,91,77,45,30.16,30.03,7,1,7,0.10
2013-1-4,44.4,37.4,33.6,41.3,33.9,30.9,90,87,74,30.26,30.10,5,0,5,0.04
2013-1-5,41.7,38.5,35.4,36.1,33.2,31.3,90,82,73,30.15,30.05,8,1,9,0.04
2013-1-6,43.7,37.8,33.6,39.4,34.8,31.0,90,89,82,30.14,29.94,3,0,4,0.22
2013-1-7,47.8,43.5,37.2,44.7,39.7,33.8,90,86,82,30.10,29.78,19,2,21,0.30
2013-1-8,51.6,44.4,38.2,46.8,40.5,35.3,90,86,80,30.10,29.68,15,1,15,0.48
2013-1-9,46.7,37.7,32.5,43.6,34.7,29.9,91,89,86,29.91,29.63,14,0,14,1.00
2013-1-10,35.2,32.1,26.6,32.3,29.1,23.5,90,89,87,30.07,29.90,3,0,4,0.04
2013-1-11,30.7,26.7,24.0,28.1,23.8,21.0,91,89,87,30.27,30.06,2,0,4,0.00
2013-1-12,38.6,24.9,20.1,34.3,22.3,17.9,91,90,82,30.39,30.26,0,0,0,0.00
2013-1-13,32.5,24.0,17.4,28.8,21.5,15.2,91,90,85,30.44,30.38,2,0,3,0.00
2013-1-14,32.1,29.5,27.3,29.8,27.0,24.7,91,90,90,30.50,30.40,1,0,2,0.02
2013-1-15,45.6,31.6,25.5,37.8,28.1,23.0,90,87,72,30.62,30.50,2,0,4,0.00
2013-1-16,44.4,28.9,23.0,39.3,25.9,20.5,90,89,78,30.61,30.45,1,0,1,0.00
2013-1-17,46.5,29.1,24.0,41.1,26.1,21.5,90,89,76,30.47,30.24,3,0,4,0.00
2013-1-18,33.6,27.3,21.0,30.7,24.7,18.5,90,90,88,30.29,30.21,3,0,3,0.00
2013-1-19,31.2,27.6,25.8,27.5,24.4,22.5,88,87,86,30.33,30.27,2,0,2,0.00
2013-1-20,33.4,27.4,24.2,29.7,24.1,21.2,88,87,85,30.34,30.21,0,0,0,0.00
2013-1-21,31.8,27.5,24.2,27.8,24.0,21.2,89,87,84,30.22,30.09,2,0,2,0.00
2013-1-22,35.7,28.0,19.9,32.2,24.7,16.9,89,87,84,30.10,29.86,1,0,2,0.00
2013-1-23,40.8,36.1,31.4,35.7,31.8,28.2,91,84,70,30.07,29.79,7,0,7,0.18
2013-1-24,43.7,37.4,29.8,37.7,33.5,26.7,90,86,77,30.16,30.00,0,0,1,0.16
2013-1-25,46.9,40.0,34.1,43.8,35.6,30.4,90,84,78,30.01,29.88,1,0,3,0.22
2013-1-26,43.1,37.9,33.4,99.9,41.3,29.3,90,86,80,29.98,29.84,5,0,9,0.16
2013-1-27,39.5,37.3,35.7,36.8,34.5,32.5,90,90,88,30.01,29.94,3,0,9,0.12
2013-1-28,38.4,36.6,32.7,33.7,32.3,29.2,88,84,81,30.05,29.96,4,0,4,0.64
2013-1-29,42.9,40.3,37.5,36.0,34.0,31.9,81,78,76,30.28,30.04,6,0,7,0.68
2013-1-30,46.2,44.1,41.1,40.8,37.5,34.5,82,78,73,30.31,30.26,3,0,5,0.12
2013-1-31,47.1,44.1,42.9,44.0,38.7,35.9,90,81,75,30.32,30.23,2,0,2,0.20
2013-2-1,54.3,43.3,40.0,48.2,38.6,34.8,90,84,75,30.33,30.26,2,0,2,0.00
2013-2-2,41.0,37.3,34.1,37.7,33.3,30.0,88,85,80,30.32,30.19,2,0,2,0.00
2013-2-3,44.4,38.8,33.6,40.9,34.0,28.7,88,83,77,30.25,30.14,0,0,0,0.14
2013-2-4,49.6,42.7,39.7,45.3,38.2,33.9,90,84,76,30.15,29.83,2,0,3,0.00
2013-2-5,48.2,42.9,40.4,42.8,39.6,37.1,90,88,79,29.90,29.80,9,0,12,0.28
2013-2-6,47.2,42.5,39.3,41.9,38.5,36.0,90,86,67,30.01,29.75,6,0,6,0.06
2013-2-7,53.9,39.9,29.1,38.1,34.0,26.2,89,80,52,30.14,29.76,5,0,5,0.10
2013-2-8,42.4,34.4,28.0,37.7,31.0,25.4,90,88,77,30.25,30.15,2,0,3,0.00
2013-2-9,40.8,37.5,35.2,37.6,34.4,32.2,90,88,86,30.28,30.20,0,0,0,0.06
2013-2-10,48.0,37.9,33.7,40.7,33.8,29.7,90,85,73,30.32,30.25,4,0,4,0.00
2013-2-11,45.3,39.5,34.8,39.2,35.7,32.1,90,87,76,30.30,30.25,0,0,6,0.00
2013-2-12,46.0,42.6,38.4,42.9,38.9,35.4,90,86,82,30.33,30.23,11,0,15,0.12
2013-2-13,46.2,42.4,39.5,42.5,38.9,36.3,90,88,83,30.42,30.23,9,0,10,0.08
2013-2-14,46.7,42.4,38.8,42.9,39.2,35.8,90,88,85,30.48,30.41,2,0,2,0.04
2013-2-15,61.8,40.9,33.6,49.0,36.5,30.6,90,84,62,30.47,30.12,2,0,4,0.00
2013-2-16,49.8,40.3,32.3,42.2,36.1,29.4,89,85,66,30.15,30.04,12,1,13,0.66
2013-2-17,45.1,38.1,33.9,38.0,33.8,30.5,90,85,72,30.18,30.06,3,0,4,0.00
2013-2-18,45.1,37.5,31.8,37.9,33.3,29.2,90,85,70,30.06,29.72,4,0,4,0.00
2013-2-19,52.5,37.7,28.9,35.7,31.2,26.1,90,78,50,29.97,29.69,8,0,10,0.00
2013-2-20,42.7,36.4,29.4,99.9,33.3,26.6,90,87,76,30.00,29.94,6,0,7,0.04
2013-2-21,40.8,38.3,34.8,37.2,35.1,31.8,90,88,86,30.02,29.96,12,1,12,0.08
2013-2-22,41.3,39.2,36.6,38.6,35.8,32.3,90,87,82,30.01,29.66,16,1,22,0.26
2013-2-23,44.7,38.8,35.9,38.6,34.7,32.4,90,85,77,30.32,29.86,7,1,10,0.22
2013-2-24,44.7,40.1,35.7,38.1,35.5,32.5,90,84,73,30.33,29.91,8,0,8,0.00
2013-2-25,47.4,40.3,31.1,99.9,34.7,27.4,90,79,55,30.25,29.85,21,2,24,0.16
2013-2-26,46.9,38.2,28.9,36.7,30.8,26.1,90,76,56,30.31,30.14,6,0,6,0.00
2013-2-27,47.4,40.4,32.7,41.3,36.5,29.8,90,86,74,30.25,30.14,3,0,4,0.34
2013-2-28,50.3,42.9,39.0,99.9,39.6,34.8,89,84,78,30.25,30.13,5,0,7,0.26
2013-3-1,55.7,51.7,45.1,49.3,46.9,41.8,89,84,76,30.29,30.21,12,1,12,0.06
2013-3-2,55.9,45.0,35.2,46.6,40.8,32.3,90,85,69,30.22,30.00,7,0,19,0.48
2013-3-3,47.1,36.2,29.1,37.3,31.1,26.2,90,82,58,30.26,30.15,8,0,8,0.02
2013-3-4,54.1,38.3,27.1,33.1,26.8,23.2,90,67,37,30.26,29.88,9,1,9,0.00
2013-3-5,51.4,45.0,38.4,35.5,29.3,22.2,84,56,40,29.88,29.68,8,1,12,0.00
2013-3-6,41.5,37.6,33.9,99.9,36.6,30.8,89,88,84,29.86,29.55,3,0,3,0.46
2013-3-7,47.6,39.4,33.0,43.0,35.6,30.1,89,86,79,30.05,29.86,4,0,4,0.32
2013-3-8,51.7,36.6,28.7,42.5,32.2,25.6,90,84,68,30.19,30.03,4,0,7,0.00
2013-3-9,58.4,38.0,27.1,40.9,31.7,24.3,90,79,47,30.44,30.19,9,0,9,0.00
2013-3-10,42.9,37.9,30.9,39.7,34.8,27.7,89,89,86,30.44,30.36,2,0,4,0.04
2013-3-11,50.5,42.9,37.7,43.9,38.7,33.5,89,85,76,30.38,30.11,3,0,3,0.04
2013-3-12,52.1,49.8,42.9,46.8,45.1,39.0,89,84,75,30.11,30.01,11,1,13,0.00
2013-3-13,53.4,49.1,46.5,99.9,46.4,42.0,89,87,84,30.14,30.03,11,0,11,0.24
2013-3-14,53.9,48.4,45.6,50.4,43.5,39.9,89,83,74,30.10,29.97,9,0,9,0.02
2013-3-15,65.1,51.4,46.5,99.9,46.9,43.2,90,84,60,30.15,30.07,10,1,10,0.00
2013-3-16,48.3,44.7,39.0,44.1,40.7,34.7,90,86,78,30.07,29.85,16,2,18,0.24
2013-3-17,48.5,40.6,35.9,36.9,34.1,32.4,88,78,59,30.14,29.93,13,2,15,0.00
2013-3-18,48.7,40.7,32.5,41.1,35.1,29.3,89,81,69,30.20,30.06,17,2,17,0.00
2013-3-19,53.7,41.4,32.3,38.8,32.0,27.8,90,73,38,30.19,29.57,18,2,18,0.14
2013-3-20,48.5,43.7,38.8,44.2,39.0,32.5,89,83,71,29.97,29.37,22,3,28,0.54
2013-3-21,46.9,37.8,32.7,36.4,32.5,30.1,90,82,58,30.17,29.97,20,2,20,0.20
2013-3-22,46.7,35.3,29.1,36.4,30.7,25.8,90,84,61,30.33,30.16,7,0,8,0.14
2013-3-23,53.4,37.7,28.9,33.8,29.1,25.6,90,73,42,30.35,30.22,8,0,8,0.00
2013-3-24,56.8,40.9,28.2,34.2,28.0,10.8,89,64,33,30.26,30.05,6,1,6,0.00
2013-3-25,41.7,39.5,37.7,27.4,26.4,25.8,63,59,56,30.08,30.04,4,1,4,0.00
2013-3-27,54.5,48.5,42.4,46.8,43.5,39.0,89,83,66,29.94,29.90,1,0,1,0.00
2013-3-28,62.7,48.0,38.4,49.2,41.9,35.5,89,80,58,30.10,29.94,11,0,15,0.02
2013-3-29,67.8,50.9,40.6,49.1,42.4,37.6,89,75,48,30.19,30.10,12,1,12,0.00
2013-3-30,72.3,50.8,35.0,48.3,40.6,32.1,89,71,37,30.21,30.01,8,0,8,0.00
2013-3-31,76.4,52.7,36.3,50.2,42.4,33.1,89,72,34,30.03,29.83,7,0,9,0.00
2013-4-1,66.0,51.0,39.0,51.2,44.2,36.0,89,78,53,30.09,29.91,11,1,13,0.00
2013-4-2,53.2,49.7,47.1,47.8,45.6,42.8,89,86,81,30.14,30.09,4,0,5,0.00
2013-4-3,64.2,51.5,41.5,49.3,43.8,37.9,89,76,55,30.13,29.89,6,0,7,0.00
2013-4-4,54.8,50.4,45.6,51.0,46.7,42.2,89,87,83,29.89,29.60,7,0,7,0.18
2013-4-5,55.9,50.2,46.2,50.5,46.3,42.2,89,86,79,29.82,29.69,11,0,13,0.64
2013-4-6,50.9,45.6,41.3,45.6,41.9,38.0,90,87,79,29.90,29.68,9,1,11,0.44
2013-4-7,43.3,40.8,38.8,39.7,37.2,34.7,88,87,83,29.85,29.45,7,0,7,0.88
2013-4-8,52.5,44.4,39.3,47.5,40.1,35.2,89,85,80,30.22,29.84,5,0,5,0.04
2013-4-9,54.3,47.0,39.5,45.8,41.5,35.7,90,81,68,30.27,30.12,6,0,6,0.00
2013-4-10,58.2,48.7,44.4,50.2,44.8,40.7,89,86,69,30.19,29.88,20,1,20,0.34
2013-4-11,50.9,44.5,37.2,44.7,40.7,34.2,90,87,77,30.24,30.13,8,0,8,0.20
2013-4-12,47.8,40.8,35.7,41.7,37.2,32.8,90,87,75,30.14,29.64,19,1,19,0.24
2013-4-13,44.4,38.1,32.3,39.8,34.8,29.7,90,88,82,29.96,29.72,14,1,15,0.83
2013-4-14,55.2,42.1,34.8,42.8,36.5,31.1,90,81,55,29.97,29.85,8,0,9,0.14
2013-4-15,54.8,41.7,33.6,43.5,37.1,30.7,90,84,59,30.13,29.90,10,1,13,0.28
2013-4-16,58.2,42.3,30.7,45.1,35.5,27.8,90,78,50,30.33,30.13,9,0,9,0.02
2013-4-17,62.4,47.3,33.4,41.8,36.1,30.4,89,68,37,30.39,30.30,9,1,13,0.00
2013-4-18,50.5,45.9,42.0,44.0,40.8,36.7,89,82,72,30.39,30.15,7,0,7,0.20
2013-4-19,53.0,48.9,47.1,99.9,48.8,42.2,88,85,81,30.15,30.00,7,0,13,0.96
2013-4-20,54.3,47.8,44.9,99.9,44.2,40.5,89,86,79,30.21,30.11,8,1,13,0.10
2013-4-21,54.6,45.5,37.4,48.0,41.5,34.4,90,86,75,30.30,30.16,7,0,7,0.08
2013-4-22,64.0,46.7,34.1,44.1,35.3,29.7,90,69,30,30.44,30.30,11,1,11,0.00
2013-4-23,66.9,48.4,32.7,41.1,35.3,29.4,89,64,30,30.36,30.14,9,1,11,0.00
2013-4-24,72.1,52.4,34.1,43.5,36.5,30.5,89,60,25,30.27,30.01,12,0,12,0.00
2013-4-25,74.8,56.4,39.0,45.2,39.7,33.2,83,57,33,30.08,29.99,8,0,13,0.00
2013-4-26,71.9,56.1,41.3,51.3,44.8,37.4,88,68,38,30.18,30.08,9,1,10,0.00
2013-4-27,54.1,51.5,48.3,47.5,43.6,37.9,87,75,55,30.16,30.10,10,0,11,0.14
2013-4-28,57.3,49.7,45.6,49.4,43.2,39.4,89,79,56,30.15,29.91,11,1,13,0.12
2013-4-29,50.7,43.7,37.5,44.4,39.7,34.6,89,86,73,30.12,29.86,6,1,8,0.70
2013-4-30,56.8,42.5,33.6,44.6,35.8,30.7,89,79,44,30.38,30.12,8,0,8,0.20
2013-5-1,69.2,49.2,31.1,39.5,35.0,28.1,89,63,29,30.50,30.38,8,1,14,0.00
2013-5-2,70.5,54.4,37.0,48.2,40.1,33.2,88,61,36,30.47,30.27,11,1,15,0.00
2013-5-3,74.3,55.7,38.2,51.4,43.3,34.4,88,65,40,30.34,30.15,8,1,21,0.00
2013-5-4,81.1,60.8,41.5,53.2,44.9,37.9,88,61,27,30.18,29.95,13,1,22,0.00
2013-5-5,87.4,64.9,43.7,52.5,46.3,39.4,87,56,25,29.95,29.71,12,1,13,0.00
2013-5-6,89.4,69.0,48.9,52.7,45.6,38.9,74,47,21,29.80,29.71,8,1,11,0.00
2013-5-7,73.5,60.0,49.2,55.3,50.0,43.6,86,71,49,29.94,29.77,16,1,16,0.00
2013-5-8,69.0,55.9,49.2,55.9,49.7,45.2,88,80,61,30.09,29.95,6,0,8,0.00
2013-5-9,75.5,57.6,44.9,59.2,50.2,41.6,89,78,54,30.16,30.04,10,0,10,0.00
2013-5-10,81.3,63.5,45.6,58.2,51.5,42.3,89,68,42,30.13,30.04,9,0,9,0.00
2013-5-11,83.6,66.4,52.8,59.6,53.5,48.4,87,66,39,30.11,29.91,9,0,9,0.00
2013-5-12,72.3,62.5,55.9,59.6,55.9,51.4,87,79,59,30.05,29.94,6,0,6,0.00
2013-5-13,65.4,54.8,45.1,58.2,49.7,41.5,88,83,74,30.14,29.86,15,1,22,0.00
2013-5-14,68.1,52.7,40.8,46.9,41.7,37.8,89,69,37,30.17,30.05,9,0,10,0.00
2013-5-15,65.4,52.2,41.1,48.0,44.0,37.6,88,75,51,30.07,29.96,9,1,9,0.00
2013-5-16,74.3,60.1,50.0,55.2,50.1,45.8,88,72,46,29.97,29.79,11,1,11,0.00
2013-5-17,59.5,54.2,50.7,52.2,49.1,46.7,88,83,72,30.01,29.89,7,0,7,0.00
2013-5-18,60.4,54.0,50.7,50.5,47.5,45.6,86,79,67,30.20,30.01,5,0,6,0.00
2013-5-19,62.5,54.1,46.5,56.1,48.6,43.2,88,82,67,30.32,30.20,4,0,4,1.79
2013-5-20,70.3,55.3,43.3,54.5,47.3,40.0,89,76,49,30.28,29.85,8,0,8,0.00
2013-5-21,58.0,49.2,44.4,50.2,44.4,30.8,89,84,38,29.84,29.72,5,0,9,0.26
2013-5-22,52.7,45.1,40.8,46.7,41.5,37.8,89,87,77,29.89,29.81,6,0,6,0.16
2013-5-23,56.6,47.4,42.6,49.8,43.4,39.0,89,86,74,29.97,29.88,4,0,4,0.14
2013-5-24,64.7,51.2,42.6,50.0,44.8,39.6,89,80,55,30.00,29.92,6,0,6,0.04
2013-5-25,63.3,54.0,47.1,49.6,46.1,43.5,89,76,55,30.00,29.92,4,0,4,0.00
2013-5-26,63.1,53.0,45.6,55.1,48.4,42.0,89,84,71,29.94,29.89,3,0,3,0.26
2013-5-27,57.0,52.6,47.1,52.6,48.3,42.5,88,85,79,29.92,29.67,4,0,5,0.26
2013-5-28,60.6,53.8,49.6,53.1,48.8,45.0,88,83,71,29.83,29.72,6,0,6,0.08
2013-5-29,58.6,52.0,47.6,52.6,47.3,43.0,89,84,72,29.92,29.64,6,0,11,0.16
2013-5-30,61.8,53.5,47.2,49.8,46.0,43.1,88,76,58,30.18,29.92,10,0,10,0.00
2013-5-31,67.4,55.0,45.6,51.2,46.5,41.3,89,74,51,30.26,30.18,6,0,6,0.00
2013-6-1,74.4,59.9,44.9,52.7,47.5,41.0,88,66,39,30.19,29.97,6,0,6,0.00
2013-6-2,67.8,57.3,49.8,54.5,49.1,45.1,88,75,55,30.03,29.97,4,0,5,0.04
2013-6-3,74.4,59.7,45.8,55.6,49.6,42.5,89,71,48,30.05,29.98,9,0,14,0.00
2013-6-4,83.4,64.9,46.2,58.9,52.1,42.8,88,66,38,30.07,29.94,9,0,9,0.00
2013-6-5,81.1,64.7,49.2,60.7,52.7,45.1,87,67,46,30.03,29.94,9,0,9,0.00
2013-6-6,80.9,65.2,49.0,60.3,51.8,45.2,88,65,38,30.00,29.92,6,0,7,0.00
2013-6-7,69.9,59.1,50.7,54.8,48.1,41.7,86,68,46,30.09,29.97,6,0,7,0.00
2013-6-8,69.9,59.1,51.7,53.8,48.7,45.1,79,69,54,30.13,30.03,8,0,11,0.00
2013-6-9,71.2,60.9,52.5,50.5,47.2,43.0,79,62,45,30.06,29.95,7,0,9,0.00
2013-6-10,72.3,58.7,43.3,51.5,46.0,38.5,87,64,39,29.99,29.80,6,0,7,0.00
2013-6-11,67.0,57.4,50.7,48.8,45.0,42.3,76,64,47,30.05,29.89,10,0,13,0.00
2013-6-12,67.2,56.3,49.2,53.1,46.9,42.5,87,72,49,30.09,30.03,4,0,6,0.18
2013-6-13,66.0,55.6,49.8,54.5,49.6,45.6,88,81,61,30.15,30.08,4,0,4,0.04
2013-6-14,69.6,57.7,48.7,52.9,48.5,43.9,87,72,51,30.17,30.00,7,0,10,0.00
2013-6-15,79.3,62.3,44.2,58.0,50.8,40.7,88,69,41,30.01,29.83,6,0,6,0.00
2013-6-16,75.5,61.9,50.3,58.5,53.2,46.3,88,75,51,30.03,29.93,10,0,10,0.06
2013-6-17,78.4,63.0,48.9,58.8,52.2,45.5,88,70,44,30.04,29.82,11,0,11,0.04
2013-6-18,73.9,60.8,53.4,56.8,51.4,46.8,88,73,44,29.93,29.81,3,0,7,0.02
2013-6-19,63.5,56.7,52.8,54.3,50.4,47.5,88,80,63,29.96,29.86,5,0,8,0.06
2013-6-20,56.1,53.0,51.0,52.4,49.1,45.7,88,86,82,30.05,29.91,4,0,6,0.86
2013-6-21,67.0,57.7,50.5,99.9,51.0,44.7,88,76,63,30.10,30.05,4,0,5,0.00
2013-6-22,78.8,64.7,48.0,59.5,52.9,44.6,88,68,43,30.07,29.80,6,0,6,0.00
2013-6-23,69.9,62.9,56.8,99.9,59.3,52.1,87,82,70,29.79,29.55,5,0,5,0.18
2013-6-24,63.3,58.9,54.6,57.7,53.8,49.6,88,83,78,29.67,29.54,6,0,9,0.22
2013-6-25,77.3,60.6,53.5,60.5,53.8,48.2,88,79,51,29.82,29.63,6,0,6,0.62
2013-6-26,72.3,60.8,54.1,63.0,55.2,47.9,88,82,68,30.02,29.80,5,0,5,0.08
2013-6-27,70.5,62.3,56.8,65.0,57.1,50.9,88,83,79,30.13,29.99,3,0,3,0.10
2013-6-28,88.5,72.1,59.0,68.7,61.4,52.8,87,71,45,30.12,29.97,4,0,8,0.00
2013-6-29,87.6,72.7,61.7,67.9,62.3,57.6,87,71,47,30.04,29.93,5,0,5,0.00
2013-6-30,96.0,76.1,57.9,72.6,63.6,54.0,88,68,39,29.95,29.80,4,0,6,0.00
2013-7-1,92.3,76.0,60.4,69.1,62.7,56.5,87,66,42,29.95,29.84,8,0,8,0.00
2013-7-2,85.6,71.1,58.2,64.6,57.8,51.2,86,65,38,30.03,29.95,9,0,9,0.00
2013-7-3,81.5,67.3,55.2,58.7,52.5,47.2,82,61,41,30.09,29.95,6,0,7,0.00
2013-7-4,73.2,61.8,53.2,56.0,51.8,47.4,82,71,52,30.06,29.96,8,0,8,0.00
2013-7-5,71.9,62.5,53.5,58.2,53.5,49.0,86,73,54,29.97,29.89,5,0,6,0.00
2013-7-6,82.0,65.3,52.3,61.1,55.2,48.8,88,72,45,29.92,29.79,7,0,7,0.00
2013-7-7,78.9,65.8,53.2,61.0,55.7,49.1,87,71,51,29.89,29.82,10,0,10,0.00
2013-7-8,78.4,61.8,57.3,61.5,54.9,52.6,86,79,56,30.02,29.89,7,0,7,0.00
2013-9-22,56.1,55.4,54.3,51.0,50.7,50.2,86,84,83,29.70,29.68,11,1,11,0.00
2013-9-23,58.6,54.0,47.4,52.7,49.6,44.1,88,85,76,29.92,29.70,7,0,10,0.12
2013-9-24,62.7,51.8,46.0,51.2,45.7,41.7,88,80,61,29.92,29.78,6,0,7,0.04
2013-9-25,59.9,50.4,43.8,51.4,45.8,40.5,88,85,69,29.98,29.81,4,0,4,0.02
2013-9-26,62.9,49.2,40.8,51.5,43.5,37.5,88,82,63,30.09,29.98,8,0,8,0.00
2013-9-27,55.5,50.8,46.2,51.7,46.9,42.8,88,86,83,30.08,29.80,4,0,9,0.08
2013-9-28,59.5,53.3,48.9,55.0,48.0,44.9,88,82,70,29.81,29.33,13,0,14,2.42
2013-9-29,54.3,50.5,48.7,47.8,46.2,44.6,88,85,77,29.55,29.16,12,1,16,0.94
2013-9-30,54.1,48.8,45.1,50.4,45.0,41.5,89,87,83,29.88,29.42,9,0,9,0.72
2013-10-1,56.8,48.6,43.3,48.6,44.1,40.0,89,85,70,30.06,29.87,6,0,7,0.10
2013-10-2,53.7,49.2,45.6,47.7,44.8,42.0,88,85,78,30.12,29.99,9,0,9,0.22
2013-10-3,53.7,48.2,41.1,48.9,43.9,37.9,89,85,79,30.39,30.12,4,0,4,0.02
2013-10-4,65.1,47.8,36.3,54.8,42.4,32.5,88,82,62,30.42,30.28,2,0,5,0.00
2013-10-5,71.7,51.5,39.3,55.8,44.6,36.0,88,79,49,30.30,30.08,3,0,4,0.00
2013-10-6,76.2,53.7,39.9,53.0,44.3,36.5,88,74,37,30.08,29.82,5,0,7,0.00
2013-10-7,61.1,52.8,49.4,50.3,46.9,44.7,88,81,59,29.96,29.86,11,0,12,0.12
2013-10-8,53.4,47.8,41.0,47.4,43.8,37.4,88,86,78,30.03,29.91,9,0,9,0.24
2013-10-9,63.6,44.7,33.9,51.2,39.8,30.2,88,83,63,30.09,29.91,5,0,5,0.00
2013-10-10,58.8,49.2,41.0,49.2,44.3,37.7,88,83,67,30.01,29.89,3,0,3,0.02
2013-10-11,54.5,49.4,45.5,50.7,45.1,41.8,88,85,77,30.08,30.00,4,0,4,0.56
2013-10-12,55.5,47.5,42.2,50.1,43.2,38.3,88,85,78,30.15,30.01,3,0,4,0.14
2013-10-13,59.1,44.2,38.2,51.4,40.0,34.4,89,85,75,30.31,30.15,5,0,5,0.00
2013-10-14,64.0,43.6,33.6,53.6,39.0,30.1,88,84,67,30.37,30.27,2,0,3,0.02
2013-10-15,64.0,45.8,34.7,53.6,41.1,31.2,88,84,68,30.33,30.12,6,0,6,0.00
2013-10-16,49.8,46.4,41.5,46.4,42.6,37.9,89,87,82,30.14,30.09,0,0,1,0.00
2013-10-17,60.0,46.2,39.9,52.8,42.2,36.6,89,86,75,30.21,30.14,0,0,2,0.00
2013-10-18,67.6,45.7,37.5,56.2,41.1,33.8,89,84,67,30.19,30.07,5,0,5,0.00
2013-10-19,47.4,43.9,40.0,44.1,39.8,35.6,88,85,81,30.13,30.09,3,0,4,0.00
2013-10-20,46.0,43.7,41.9,42.0,38.3,35.8,86,81,79,30.15,30.10,2,0,2,0.02
2013-10-21,49.0,44.5,41.3,44.9,38.5,34.7,87,79,75,30.12,30.04,0,0,1,0.02
2013-10-22,59.0,46.2,42.6,99.9,55.0,35.2,88,81,73,30.07,29.98,2,0,4,0.00
2013-10-23,68.7,46.9,39.7,99.9,48.0,34.0,88,81,70,30.00,29.90,0,0,2,0.04
2013-10-24,49.8,45.0,40.6,99.9,48.9,36.0,87,83,75,30.06,29.97,3,0,4,0.00
2013-10-25,54.6,46.3,41.9,99.9,59.1,37.6,88,80,76,30.25,30.06,0,0,14,0.04
2013-10-26,48.5,46.3,42.9,45.4,42.3,39.0,89,86,81,30.27,30.13,0,0,0,0.00
2013-10-27,49.8,45.8,40.8,45.8,41.6,36.6,89,85,79,30.13,29.85,1,0,1,0.14
2013-10-28,60.6,42.7,35.7,48.8,37.3,31.1,89,82,57,29.92,29.82,8,0,8,0.00
2013-10-29,60.0,40.4,30.2,44.0,34.8,27.3,90,82,53,30.00,29.91,2,0,4,0.00
2013-10-30,56.8,44.5,33.9,46.8,39.2,31.0,90,82,68,30.08,29.99,10,0,10,0.02
2013-10-31,52.5,48.4,45.6,48.5,44.2,42.3,88,85,81,30.19,30.04,0,0,0,0.10
2013-11-1,61.3,51.6,44.7,54.5,46.3,38.8,88,82,76,30.21,29.78,0,0,0,0.00
2013-11-2,52.5,49.8,48.7,49.0,44.8,41.8,89,83,76,29.79,29.47,15,1,15,0.62
2013-11-7,49.4,46.6,45.1,45.1,41.8,39.5,89,83,78,29.93,29.67,13,1,13,1.16
2013-11-8,53.4,46.6,40.8,46.7,42.6,37.5,89,86,76,30.11,29.92,8,0,8,0.18
2013-11-9,49.8,43.2,35.4,44.5,39.3,32.1,89,86,80,30.11,30.00,3,0,3,0.00
2013-11-10,48.0,45.0,42.6,44.9,41.0,38.1,89,86,82,30.09,30.02,0,0,2,0.00
2013-11-11,61.3,50.5,39.0,50.2,40.5,34.4,89,71,49,30.10,29.92,12,1,13,0.02
2013-11-12,57.3,50.7,47.4,99.9,45.5,39.9,88,82,56,30.30,29.96,4,0,4,0.02
2013-11-13,57.5,50.0,43.7,99.9,46.7,40.6,89,86,72,30.36,30.24,6,0,6,0.00
2013-11-14,48.7,44.2,40.2,45.4,40.5,36.7,89,87,81,30.25,30.01,2,0,9,0.00
2013-11-15,45.5,42.5,38.8,40.9,38.4,35.5,89,85,81,30.01,29.30,16,0,16,0.00
2013-11-16,45.1,41.2,35.9,41.4,36.6,31.4,89,84,79,29.73,29.34,8,0,11,0.00
2013-11-17,48.3,45.0,41.1,99.9,43.3,37.3,89,86,81,29.86,29.72,8,0,8,0.00
2013-11-18,51.6,47.4,44.9,48.1,41.5,38.8,89,80,72,29.86,29.51,13,0,13,0.00
2013-11-19,51.9,42.0,33.4,47.9,38.1,30.5,90,86,83,30.02,29.51,14,0,16,0.26
2013-11-20,44.4,31.8,25.8,35.1,28.0,23.3,90,86,67,30.46,30.02,4,0,4,0.00
2013-11-21,44.2,28.9,24.0,36.6,25.6,21.5,90,87,71,30.62,30.46,0,0,1,0.00
2013-11-22,43.5,29.5,22.4,35.7,26.0,19.9,90,87,68,30.61,30.41,4,0,4,0.00
2013-11-23,50.3,33.2,25.7,40.5,29.0,23.1,90,85,64,30.41,30.15,1,0,3,0.00
2013-11-24,54.3,34.3,26.6,43.2,30.2,24.0,90,85,64,30.21,30.10,0,0,0,0.22
2013-11-25,58.2,37.4,28.7,41.8,31.8,25.9,90,81,51,30.26,30.19,0,0,0,0.04
2013-11-26,57.5,38.4,27.6,41.9,33.2,24.8,90,82,52,30.22,30.04,0,0,0,0.02
2013-11-27,57.5,41.5,32.1,45.0,36.4,29.3,89,82,62,30.05,29.90,1,0,1,0.00
2013-11-28,57.7,37.1,30.0,45.2,32.6,26.9,89,84,62,30.14,29.99,2,0,2,0.00
2013-11-29,44.5,40.6,31.8,41.2,37.3,28.9,89,88,85,30.25,30.14,0,0,0,0.00
2013-11-30,50.3,45.6,41.9,46.0,40.7,36.2,89,83,76,30.28,30.04,6,0,10,0.02
2013-12-1,51.9,49.6,43.5,99.9,45.0,37.7,89,83,74,30.03,29.69,21,2,21,0.00
2013-12-2,46.2,37.5,32.9,37.7,33.0,30.0,89,84,67,30.00,29.76,6,0,10,0.00
2013-12-3,39.7,31.2,24.7,31.8,27.0,21.4,90,84,68,30.27,30.01,6,0,7,0.00
2013-12-4,39.3,26.0,20.4,29.0,21.7,17.7,90,84,65,30.31,30.25,1,0,2,0.00
2013-12-5,31.6,24.9,18.8,24.3,18.9,12.8,89,78,55,30.28,30.15,6,0,6,0.00
2013-12-6,32.7,23.9,15.0,14.5,10.5,8.0,75,57,43,30.20,30.09,5,0,6,0.00
2013-12-7,32.1,16.7,10.0,14.6,8.4,5.3,83,71,45,30.41,30.20,2,0,5,0.00
2013-12-8,33.9,20.2,12.0,99.9,14.6,6.7,82,73,53,30.52,30.39,0,0,1,0.00
2013-12-9,30.0,24.2,15.2,22.8,18.6,11.0,85,79,71,30.54,30.42,0,0,0,0.00
2013-12-10,38.8,31.7,28.2,32.8,27.0,22.8,88,83,77,30.44,30.35,0,0,0,0.00
2013-12-11,40.8,30.7,25.3,33.8,26.9,22.5,90,86,74,30.36,30.13,0,0,0,0.00
2013-12-12,38.4,32.6,26.2,34.9,29.4,23.4,89,88,84,30.13,30.00,0,0,2,0.00
2013-12-13,45.5,41.0,36.3,38.0,34.9,32.2,85,79,74,30.36,30.08,2,0,2,0.00
2013-12-14,45.1,41.3,36.5,99.9,34.1,29.6,80,74,69,30.38,30.27,2,0,2,0.02
2013-12-15,50.5,46.5,42.4,47.1,42.2,36.0,89,85,77,30.38,30.24,4,0,13,0.02
2013-12-16,44.4,41.0,37.0,38.4,35.2,31.4,84,80,72,30.43,30.21,1,0,2,0.00
2013-12-17,42.6,37.2,33.7,34.2,30.4,27.8,80,76,71,30.21,30.05,0,0,4,0.00
2013-12-18,42.6,38.1,30.0,34.6,31.5,25.4,85,77,71,30.12,29.98,5,0,5,0.14
2013-12-19,36.5,29.3,24.7,33.5,25.5,20.5,90,85,80,30.30,30.09,0,0,0,0.00
2013-12-20,34.5,31.3,27.6,28.2,26.7,24.3,88,83,77,30.16,29.68,2,0,3,0.00
2013-12-21,42.6,37.7,34.1,33.5,29.9,27.0,77,73,70,30.11,29.79,0,0,0,0.24
2013-12-22,46.9,43.9,41.5,35.4,33.3,31.7,70,66,62,30.23,30.10,6,0,6,0.00
2013-12-23,50.1,45.1,39.2,99.9,37.8,32.6,89,74,61,30.45,30.06,20,2,22,0.00
2013-12-24,48.0,37.3,32.5,44.5,31.4,27.2,90,79,69,30.56,30.44,2,0,3,0.00
2013-12-25,36.8,32.0,29.4,29.3,25.9,23.0,83,78,74,30.48,30.34,1,0,3,0.00
2013-12-26,50.3,34.3,29.1,47.2,28.4,22.5,90,79,69,30.34,30.16,2,0,2,0.00
2013-12-27,45.5,36.6,30.0,41.5,30.6,25.2,87,79,70,30.31,30.07,8,0,11,0.00
2013-12-28,44.7,39.5,35.2,34.1,30.4,26.2,74,70,65,30.46,30.31,4,0,4,0.00
2013-12-29,39.9,37.1,34.5,29.3,27.4,25.4,70,68,65,30.42,30.25,2,0,3,0.00
2013-12-30,41.0,38.2,35.2,99.9,32.9,25.3,68,66,63,30.26,30.07,7,0,7,0.00
2013-12-31,44.7,41.7,39.9,31.7,29.6,28.3,64,62,60,30.31,30.14,2,0,3,0.00
2014-1-1,43.3,37.5,31.2,99.9,34.1,21.2,67,64,59,30.35,30.18,2,0,2,0.00
2014-1-2,44.7,41.8,37.9,32.2,29.8,27.4,66,62,59,30.19,29.85,3,0,7,0.00